createdAt,value
2019-02-08T00:00:42.601Z,64.52
2019-02-08T00:01:43.172Z,65.47
2019-02-08T00:02:44.002Z,66.99
2019-02-08T00:03:44.755Z,66.7
2019-02-08T00:04:46.425Z,66.8
2019-02-08T00:05:46.461Z,66.51
2019-02-08T00:06:47.639Z,65.94
2019-02-08T00:07:47.925Z,65.47
2019-02-08T00:08:48.107Z,65.47
2019-02-08T00:09:49.301Z,65.09
2019-02-08T00:10:50.748Z,63.39
2019-02-08T00:11:51.174Z,66.7
2019-02-08T00:12:52.461Z,68.4
2019-02-08T00:13:52.887Z,68.4
2019-02-08T00:14:54.038Z,71.62
2019-02-08T00:15:55.018Z,69.82
2019-02-08T00:16:56.281Z,69.35
2019-02-08T00:17:56.396Z,69.35
2019-02-08T00:18:58.133Z,70.11
2019-02-08T00:19:58.994Z,71.15
2019-02-08T00:21:00.392Z,72.38
2019-02-08T00:22:01.641Z,72.57
2019-02-08T00:23:01.641Z,72.38
2019-02-08T00:24:03.226Z,71.25
2019-02-08T00:25:04.225Z,70.39
2019-02-08T00:26:05.460Z,68.88
2019-02-08T00:27:06.678Z,70.68
2019-02-08T00:28:06.880Z,71.25
2019-02-08T00:29:08.332Z,69.82
2019-02-08T00:30:09.894Z,70.87
2019-02-08T00:31:10.010Z,72.38
2019-02-08T00:32:11.460Z,73.9
2019-02-08T00:33:12.716Z,75.13
2019-02-08T00:34:13.134Z,75.6
2019-02-08T00:35:14.557Z,75.32
2019-02-08T00:36:14.536Z,78.16
2019-02-08T00:37:14.954Z,81.76
2019-02-08T00:38:16.375Z,79.96
2019-02-08T00:39:17.460Z,78.73
2019-02-08T00:40:18.129Z,77.4
2019-02-08T00:41:18.548Z,78.16
2019-02-08T00:42:19.099Z,78.64
2019-02-08T00:43:19.800Z,80.34
2019-02-08T00:44:20.224Z,78.73
2019-02-08T00:45:20.652Z,79.3
2019-02-08T00:46:21.375Z,81.1
2019-02-08T00:47:22.496Z,79.02
2019-02-08T00:48:22.865Z,78.54
2019-02-08T00:49:23.877Z,78.64
2019-02-08T00:50:24.306Z,78.59
2019-02-08T00:51:24.845Z,77.22
2019-02-08T00:52:25.822Z,78.64
2019-02-08T00:53:34.525Z,81.25
2019-02-08T00:53:39.001Z,80.96
2019-02-08T00:54:39.832Z,81.82
2019-02-08T00:55:40.255Z,84.19
2019-02-08T00:56:41.513Z,84.47
2019-02-08T00:57:41.864Z,84.89
2019-02-08T00:58:42.849Z,84.7
2019-02-08T00:59:43.985Z,86.03
2019-02-08T01:00:44.401Z,87.16
2019-02-08T01:01:45.557Z,87.16
2019-02-08T01:02:46.535Z,87.16
2019-02-08T01:03:47.692Z,87.64
2019-02-08T01:04:48.914Z,88.78
2019-02-08T01:05:49.947Z,87.26
2019-02-08T01:06:50.480Z,86.6
2019-02-08T01:07:50.475Z,87.64
2019-02-08T01:08:51.176Z,87.92
2019-02-08T01:09:52.155Z,85.93
2019-02-08T01:10:53.854Z,86.69
2019-02-08T01:11:54.160Z,87.16
2019-02-08T01:12:54.584Z,86.88
2019-02-08T01:13:55.284Z,86.22
2019-02-08T01:14:56.210Z,87.35
2019-02-08T01:15:56.917Z,86.88
2019-02-08T01:16:58.339Z,88.11
2019-02-08T01:17:58.754Z,88.3
2019-02-08T01:18:58.937Z,88.59
2019-02-08T01:20:00.000Z,87.07
2019-02-08T01:21:00.468Z,87.07
2019-02-08T01:22:01.955Z,89.34
2019-02-08T01:23:02.317Z,87.54
2019-02-08T01:24:03.581Z,87.64
2019-02-08T01:25:04.722Z,87.73
2019-02-08T01:26:05.248Z,87.07
2019-02-08T01:27:05.217Z,87.54
2019-02-08T01:28:05.908Z,86.98
2019-02-08T01:29:06.596Z,87.92
2019-02-08T01:30:07.013Z,87.64
2019-02-08T01:31:07.464Z,88.68
2019-02-08T01:32:08.153Z,88.78
2019-02-08T01:33:09.399Z,88.21
2019-02-08T01:34:10.422Z,88.59
2019-02-08T01:35:10.562Z,87.26
2019-02-08T01:36:11.696Z,86.69
2019-02-08T01:37:12.665Z,85.55
2019-02-08T01:38:13.079Z,85.93
2019-02-08T01:39:14.530Z,85.55
2019-02-08T01:40:15.224Z,83.94
2019-02-08T01:41:15.915Z,84.99
2019-02-08T01:42:17.057Z,85.65
2019-02-08T01:43:18.754Z,85.55
2019-02-08T01:44:19.488Z,86.88
2019-02-08T01:45:19.760Z,87.92
2019-02-08T01:46:21.187Z,88.02
2019-02-08T01:47:22.162Z,87.26
2019-02-08T01:48:22.575Z,86.79
2019-02-08T01:49:23.268Z,86.69
2019-02-08T01:50:24.517Z,87.92
2019-02-08T01:51:24.939Z,86.6
2019-02-08T01:52:25.914Z,87.35
2019-02-08T01:53:25.604Z,88.49
2019-02-08T01:54:26.130Z,88.02
2019-02-08T01:55:27.250Z,87.59
2019-02-08T01:56:28.388Z,87.26
2019-02-08T01:57:29.368Z,86.79
2019-02-08T01:58:29.783Z,86.03
2019-02-08T01:59:30.479Z,85.65
2019-02-08T02:00:31.452Z,87.64
2019-02-08T02:01:32.700Z,87.92
2019-02-08T02:02:33.398Z,86.6
2019-02-08T02:03:34.104Z,86.31
2019-02-08T02:04:35.363Z,86.69
2019-02-08T02:05:36.249Z,85.27
2019-02-08T02:06:36.278Z,84.99
2019-02-08T02:07:36.693Z,86.41
2019-02-08T02:08:36.956Z,86.98
2019-02-08T02:09:38.367Z,87.73
2019-02-08T02:10:39.063Z,92.38
2019-02-08T02:11:39.483Z,92.19
2019-02-08T02:12:39.891Z,92.76
2019-02-08T02:13:41.584Z,94.27
2019-02-08T02:14:42.003Z,95.12
2019-02-08T02:15:43.421Z,96.07
2019-02-08T02:16:44.117Z,96.36
2019-02-08T02:17:44.812Z,99.1
2019-02-08T02:18:45.228Z,98.16
2019-02-08T02:19:45.921Z,97.3
2019-02-08T02:20:47.058Z,98.44
2019-02-08T02:21:48.302Z,97.78
2019-02-08T02:22:48.760Z,95.22
2019-02-08T02:23:57.145Z,96.26
2019-02-08T02:24:03.763Z,96.17
2019-02-08T02:25:04.740Z,94.65
2019-02-08T02:26:05.727Z,93.8
2019-02-08T02:27:06.449Z,96.55
2019-02-08T02:28:06.708Z,99.77
2019-02-08T02:29:07.123Z,97.68
2019-02-08T02:30:08.546Z,99.1
2019-02-08T02:31:09.377Z,99.86
2019-02-08T02:32:09.932Z,99.58
2019-02-08T02:33:10.757Z,99.29
2019-02-08T02:34:12.012Z,97.87
2019-02-08T02:35:12.437Z,96.17
2019-02-08T02:36:13.687Z,97.97
2019-02-08T02:37:13.663Z,99.86
2019-02-08T02:38:15.229Z,99.99
2019-02-08T02:39:15.583Z,99.99
2019-02-08T02:40:16.571Z,99.99
2019-02-08T02:41:16.832Z,99.99
2019-02-08T02:42:17.804Z,99.99
2019-02-08T02:43:18.059Z,99.99
2019-02-08T02:44:19.033Z,99.99
2019-02-08T02:45:19.421Z,99.99
2019-02-08T02:46:20.704Z,99.99
2019-02-08T02:47:21.274Z,99.99
2019-02-08T02:48:21.699Z,99.99
2019-02-08T02:49:22.137Z,99.99
2019-02-08T02:50:22.836Z,99.99
2019-02-08T02:51:23.809Z,99.99
2019-02-08T02:52:24.619Z,99.99
2019-02-08T02:53:24.919Z,99.99
2019-02-08T02:54:25.176Z,99.99
2019-02-08T02:55:26.901Z,99.99
2019-02-08T02:56:27.925Z,99.99
2019-02-08T02:57:28.614Z,99.99
2019-02-08T02:58:30.154Z,99.99
2019-02-08T02:59:30.442Z,99.99
2019-02-08T03:00:31.143Z,99.99
2019-02-08T03:01:31.865Z,99.99
2019-02-08T03:02:32.562Z,99.99
2019-02-08T03:03:33.548Z,99.99
2019-02-08T03:04:34.809Z,99.99
2019-02-08T03:05:35.208Z,99.99
2019-02-08T03:06:35.914Z,99.99
2019-02-08T03:07:36.888Z,99.99
2019-02-08T03:08:39.461Z,99.99
2019-02-08T03:09:38.620Z,99.99
2019-02-08T03:10:38.591Z,99.99
2019-02-08T03:11:39.141Z,99.99
2019-02-08T03:12:40.129Z,99.99
2019-02-08T03:13:40.821Z,99.99
2019-02-08T03:14:41.525Z,99.99
2019-02-08T03:15:42.739Z,99.99
2019-02-08T03:16:43.722Z,99.99
2019-02-08T03:17:44.469Z,99.99
2019-02-08T03:18:45.483Z,99.99
2019-02-08T03:19:46.899Z,99.99
2019-02-08T03:20:47.613Z,99.99
2019-02-08T03:21:48.609Z,99.99
2019-02-08T03:22:49.880Z,99.99
2019-02-08T03:23:50.135Z,99.99
2019-02-08T03:24:51.107Z,99.99
2019-02-08T03:25:51.491Z,99.99
2019-02-08T03:26:52.214Z,99.99
2019-02-08T03:27:52.631Z,99.99
2019-02-08T03:28:53.325Z,99.99
2019-02-08T03:29:54.893Z,99.99
2019-02-08T03:30:56.172Z,99.99
2019-02-08T03:31:56.899Z,99.99
2019-02-08T03:32:57.557Z,99.99
2019-02-08T03:33:57.487Z,99.99
2019-02-08T03:34:57.903Z,99.99
2019-02-08T03:35:59.303Z,99.99
2019-02-08T03:36:59.734Z,99.99
2019-02-08T03:38:00.722Z,99.99
2019-02-08T03:39:01.139Z,99.99
2019-02-08T03:40:01.145Z,99.99
2019-02-08T03:41:02.142Z,99.99
2019-02-08T03:42:02.684Z,99.99
2019-02-08T03:43:03.820Z,99.99
2019-02-08T03:44:04.799Z,99.99
2019-02-08T03:45:05.635Z,99.99
2019-02-08T03:46:05.951Z,99.99
2019-02-08T03:47:06.762Z,99.99
2019-02-08T03:48:07.733Z,99.99
2019-02-08T03:49:08.188Z,99.99
2019-02-08T03:50:09.452Z,99.99
2019-02-08T03:51:10.260Z,99.99
2019-02-08T03:52:10.235Z,99.99
2019-02-08T03:53:11.207Z,99.99
2019-02-08T03:54:11.621Z,99.99
2019-02-08T03:54:23.652Z,99.99
2019-02-08T03:55:24.373Z,99.99
2019-02-08T03:56:25.687Z,99.99
2019-02-08T03:57:26.099Z,99.99
2019-02-08T03:58:26.517Z,99.99
2019-02-08T03:59:27.777Z,99.99
2019-02-08T04:00:28.478Z,99.99
2019-02-08T04:01:29.058Z,99.99
2019-02-08T04:02:29.493Z,99.99
2019-02-08T04:03:30.739Z,99.99
2019-02-08T04:04:31.018Z,99.99
2019-02-08T04:05:32.443Z,98.44
2019-02-08T04:06:32.414Z,97.68
2019-02-08T04:07:33.392Z,96.31
2019-02-08T04:08:33.357Z,95.55
2019-02-08T04:09:34.640Z,93.65
2019-02-08T04:10:34.924Z,91.57
2019-02-08T04:11:35.898Z,89.68
2019-02-08T04:12:37.147Z,88.64
2019-02-08T04:13:37.838Z,87.88
2019-02-08T04:14:38.086Z,86.18
2019-02-08T04:15:39.366Z,85.04
2019-02-08T04:16:40.058Z,84.75
2019-02-08T04:17:40.475Z,82.39
2019-02-08T04:18:43.325Z,81.25
2019-02-08T04:19:42.018Z,80.77
2019-02-08T04:20:43.443Z,79.45
2019-02-08T04:21:44.271Z,78.22
2019-02-08T04:22:45.515Z,77.18
2019-02-08T04:23:46.233Z,74.43
2019-02-08T04:24:47.369Z,73.86
2019-02-08T04:25:48.353Z,72.06
2019-02-08T04:26:49.604Z,70.74
2019-02-08T04:27:50.031Z,70.74
2019-02-08T04:28:51.447Z,70.74
2019-02-08T04:29:52.161Z,70.55
2019-02-08T04:30:53.579Z,69.32
2019-02-08T04:31:54.271Z,69.13
2019-02-08T04:32:55.546Z,69.22
2019-02-08T04:33:56.800Z,68.75
2019-02-08T04:34:57.049Z,69.22
2019-02-08T04:35:58.743Z,68.15
2019-02-08T04:36:59.297Z,68.27
2019-02-08T04:38:00.016Z,68.9
2019-02-08T04:39:01.559Z,68.9
2019-02-08T04:40:02.272Z,67.96
2019-02-08T04:41:03.238Z,68.24
2019-02-08T04:42:04.217Z,68.33
2019-02-08T04:43:04.912Z,68.05
2019-02-08T04:44:05.610Z,68.52
2019-02-08T04:45:06.334Z,68.15
2019-02-08T04:46:07.569Z,68.52
2019-02-08T04:47:08.262Z,68.24
2019-02-08T04:48:09.395Z,69.09
2019-02-08T04:49:10.119Z,67.77
2019-02-08T04:50:10.841Z,67.2
2019-02-08T04:51:11.366Z,68.15
2019-02-08T04:52:12.060Z,68.62
2019-02-08T04:53:12.042Z,67.77
2019-02-08T04:54:13.073Z,67.39
2019-02-08T04:55:14.496Z,66.92
2019-02-08T04:56:16.170Z,67.01
2019-02-08T04:57:16.308Z,66.92
2019-02-08T04:58:16.552Z,67.86
2019-02-08T04:59:17.002Z,67.49
2019-02-08T05:01:18.832Z,66.92
2019-02-08T05:02:19.516Z,66.53
2019-02-08T05:03:20.764Z,65.88
2019-02-08T05:04:21.459Z,65.02
2019-02-08T05:05:21.986Z,65.69
2019-02-08T05:06:23.104Z,66.16
2019-02-08T05:07:24.064Z,66.82
2019-02-08T05:08:24.474Z,67.3
2019-02-08T05:09:25.796Z,66.73
2019-02-08T05:10:26.037Z,65.97
2019-02-08T05:11:27.279Z,63.98
2019-02-08T05:12:28.252Z,64.45
2019-02-08T05:13:28.516Z,64.36
2019-02-08T05:14:28.931Z,63.7
2019-02-08T05:15:29.895Z,63.79
2019-02-08T05:16:30.516Z,62.85
2019-02-08T05:17:30.945Z,62.85
2019-02-08T05:18:31.912Z,63.23
2019-02-08T05:19:32.615Z,62.85
2019-02-08T05:20:33.579Z,62.85
2019-02-08T05:21:34.002Z,62.94
2019-02-08T05:22:34.974Z,63.79
2019-02-08T05:23:35.940Z,63.98
2019-02-08T05:24:36.359Z,63.79
2019-02-08T05:24:49.659Z,63.79
2019-02-08T05:25:50.386Z,63.7
2019-02-08T05:26:51.086Z,64.26
2019-02-08T05:27:53.596Z,64.93
2019-02-08T05:28:54.854Z,65.21
2019-02-08T05:29:55.553Z,65.88
2019-02-08T05:30:56.525Z,65.88
2019-02-08T05:31:56.652Z,67.2
2019-02-08T05:32:57.641Z,67.39
2019-02-08T05:33:58.434Z,67.3
2019-02-08T05:34:59.134Z,66.92
2019-02-08T05:35:59.754Z,66.44
2019-02-08T05:37:00.717Z,65.21
2019-02-08T05:38:01.678Z,65.12
2019-02-08T05:39:01.642Z,64.64
2019-02-08T05:40:02.603Z,65.28
2019-02-08T05:41:03.122Z,64.52
2019-02-08T05:42:03.817Z,64.61
2019-02-08T05:43:05.334Z,64.33
2019-02-08T05:44:05.333Z,63.57
2019-02-08T05:45:06.295Z,63.95
2019-02-08T05:46:06.421Z,64.42
2019-02-08T05:47:07.663Z,63.48
2019-02-08T05:48:08.345Z,63.48
2019-02-08T05:49:09.307Z,63.39
2019-02-08T05:50:09.549Z,64.14
2019-02-08T05:51:09.966Z,64.42
2019-02-08T05:52:10.942Z,63.85
2019-02-08T05:53:11.622Z,63.39
2019-02-08T05:54:12.308Z,62.82
2019-02-08T05:55:13.010Z,63.2
2019-02-08T05:56:13.838Z,61.96
2019-02-08T05:57:14.523Z,60.83
2019-02-08T05:58:15.655Z,61.11
2019-02-08T05:59:16.104Z,61.49
2019-02-08T06:00:17.513Z,61.58
2019-02-08T06:01:17.475Z,61.21
2019-02-08T06:02:18.880Z,60.55
2019-02-08T06:03:18.918Z,59.98
2019-02-08T06:04:20.195Z,59.31
2019-02-08T06:05:20.604Z,58.94
2019-02-08T06:06:20.997Z,58.94
2019-02-08T06:07:21.969Z,58.75
2019-02-08T06:08:22.663Z,58.56
2019-02-08T06:09:23.203Z,59.41
2019-02-08T06:10:23.445Z,58.84
2019-02-08T06:11:24.129Z,60.83
2019-02-08T06:12:24.820Z,60.55
2019-02-08T06:13:26.360Z,60.36
2019-02-08T06:14:26.611Z,59.5
2019-02-08T06:15:26.865Z,58.37
2019-02-08T06:16:27.964Z,58.09
2019-02-08T06:17:28.800Z,57.8
2019-02-08T06:18:29.222Z,57.33
2019-02-08T06:19:29.922Z,57.8
2019-02-08T06:20:30.347Z,57.61
2019-02-08T06:21:30.756Z,58.94
2019-02-08T06:22:31.169Z,61.3
2019-02-08T06:23:32.132Z,61.77
2019-02-08T06:24:33.099Z,61.49
2019-02-08T06:25:33.787Z,61.4
2019-02-08T06:26:34.335Z,61.02
2019-02-08T06:27:35.305Z,61.21
2019-02-08T06:28:35.271Z,62.34
2019-02-08T06:29:35.965Z,62.91
2019-02-08T06:30:36.659Z,63.57
2019-02-08T06:31:37.357Z,64.71
2019-02-08T06:32:38.338Z,64.9
2019-02-08T06:33:39.024Z,64.8
2019-02-08T06:34:42.377Z,64.9
2019-02-08T06:35:40.674Z,65.56
2019-02-08T06:36:41.772Z,65.09
2019-02-08T06:37:45.626Z,65.28
2019-02-08T06:38:46.869Z,65.09
2019-02-08T06:39:46.836Z,65.09
2019-02-08T06:40:48.245Z,65.47
2019-02-08T06:41:48.933Z,65.66
2019-02-08T06:42:49.194Z,65.84
2019-02-08T06:43:50.327Z,65.75
2019-02-08T06:44:51.297Z,65.84
2019-02-08T06:45:52.266Z,65.47
2019-02-08T06:46:53.384Z,65.56
2019-02-08T06:47:53.941Z,64.8
2019-02-08T06:48:54.936Z,64.33
2019-02-08T06:49:55.347Z,63.67
2019-02-08T06:50:56.589Z,63.2
2019-02-08T06:51:57.574Z,63.76
2019-02-08T06:52:57.764Z,64.33
2019-02-08T06:53:58.732Z,64.8
2019-02-08T06:54:59.698Z,64.8
2019-02-08T06:56:00.491Z,65.56
2019-02-08T06:57:01.480Z,66.31
2019-02-08T06:58:02.177Z,67.86
2019-02-08T06:59:02.588Z,68.9
2019-02-08T07:00:03.333Z,69.66
2019-02-08T07:01:03.854Z,70.61
2019-02-08T07:02:04.547Z,73.92
2019-02-08T07:03:05.832Z,76.57
2019-02-08T07:04:07.572Z,76.86
2019-02-08T07:05:08.177Z,78.37
2019-02-08T07:06:09.447Z,80.36
2019-02-08T07:07:09.984Z,82.57
2019-02-08T07:08:11.118Z,84.85
2019-02-08T07:09:11.535Z,86.74
2019-02-08T07:10:12.945Z,86.46
2019-02-08T07:11:13.365Z,86.55
2019-02-08T07:12:14.376Z,86.65
2019-02-08T07:13:15.184Z,86.46
2019-02-08T07:14:15.319Z,87.31
2019-02-08T07:15:16.249Z,88.54
2019-02-08T07:16:17.220Z,89.58
2019-02-08T07:17:18.325Z,88.45
2019-02-08T07:18:19.060Z,88.73
2019-02-08T07:19:19.662Z,92.52
2019-02-08T07:20:20.155Z,94.13
2019-02-08T07:21:20.874Z,94.42
2019-02-08T07:22:21.610Z,98.44
2019-02-08T07:23:23.032Z,99.99
2019-02-08T07:24:23.725Z,99.99
2019-02-08T07:25:24.444Z,99.99
2019-02-08T07:26:24.950Z,99.99
2019-02-08T07:27:25.599Z,99.99
2019-02-08T07:28:27.785Z,99.99
2019-02-08T07:29:28.345Z,99.99
2019-02-08T07:30:29.072Z,99.99
2019-02-08T07:31:29.766Z,99.99
2019-02-08T07:32:30.181Z,99.99
2019-02-08T07:33:30.874Z,99.99
2019-02-08T07:34:31.843Z,99.99
2019-02-08T07:35:32.813Z,99.99
2019-02-08T07:36:33.852Z,99.99
2019-02-08T07:37:35.093Z,99.99
2019-02-08T07:38:35.575Z,99.99
2019-02-08T07:39:36.634Z,99.99
2019-02-08T07:40:37.046Z,99.99
2019-02-08T07:41:38.295Z,99.99
2019-02-08T07:42:39.261Z,99.99
2019-02-08T07:43:40.233Z,99.99
2019-02-08T07:44:40.776Z,99.99
2019-02-08T07:45:41.048Z,99.99
2019-02-08T07:46:41.469Z,99.99
2019-02-08T07:47:42.588Z,99.99
2019-02-08T07:48:43.006Z,99.99
2019-02-08T07:49:43.842Z,99.99
2019-02-08T07:50:44.861Z,99.99
2019-02-08T07:51:45.386Z,99.99
2019-02-08T07:52:46.914Z,96.79
2019-02-08T07:53:46.851Z,96.08
2019-02-08T07:54:47.589Z,94.18
2019-02-08T07:55:48.076Z,93.6
2019-02-08T07:56:49.498Z,90.56
2019-02-08T07:57:50.480Z,89.61
2019-02-08T07:58:50.952Z,88.46
2019-02-08T07:59:52.405Z,87.94
2019-02-08T08:00:52.830Z,85.47
2019-02-08T08:01:53.254Z,83.65
2019-02-08T08:02:54.399Z,80.71
2019-02-08T08:04:02.952Z,80.46
2019-02-08T08:04:08.732Z,79.99
2019-02-08T08:05:09.562Z,77.89
2019-02-08T08:06:10.542Z,75.32
2019-02-08T08:07:11.287Z,73.03
2019-02-08T08:08:12.375Z,72.21
2019-02-08T08:09:12.478Z,70.97
2019-02-08T08:10:13.737Z,69.26
2019-02-08T08:11:14.527Z,68.34
2019-02-08T08:12:14.679Z,65.39
2019-02-08T08:13:15.870Z,63.42
2019-02-08T08:14:16.568Z,62.94
2019-02-08T08:15:16.966Z,62.75
2019-02-08T08:16:18.390Z,64.28
2019-02-08T08:17:19.836Z,63.67
2019-02-08T08:18:20.777Z,63.76
2019-02-08T08:19:21.475Z,63.29
2019-02-08T08:20:22.205Z,64.15
2019-02-08T08:21:23.461Z,65.1
2019-02-08T08:22:24.454Z,66.02
2019-02-08T08:23:25.432Z,66.88
2019-02-08T08:24:26.622Z,67.99
2019-02-08T08:25:39.199Z,67.07
2019-02-08T08:26:40.055Z,65.07
2019-02-08T08:27:40.982Z,63.39
2019-02-08T08:28:42.408Z,62.46
2019-02-08T08:29:46.405Z,63.13
2019-02-08T08:29:57.664Z,62.94
2019-02-08T08:30:09.924Z,63.23
2019-02-08T08:31:07.633Z,63.6
2019-02-08T08:32:08.629Z,63.86
2019-02-08T08:33:09.610Z,62.84
2019-02-08T08:34:10.035Z,63.04
2019-02-08T08:35:10.845Z,63.96
2019-02-08T08:36:11.825Z,65.07
2019-02-08T08:37:12.526Z,67.07
2019-02-08T08:38:12.947Z,68.27
2019-02-08T08:39:13.369Z,69.85
2019-02-08T08:40:14.109Z,71.86
2019-02-08T08:41:14.986Z,72.77
2019-02-08T08:42:15.752Z,72.86
2019-02-08T08:43:16.472Z,72.77
2019-02-08T08:44:16.914Z,72.42
2019-02-08T08:45:17.607Z,72.42
2019-02-08T08:46:18.652Z,72.71
2019-02-08T08:47:20.247Z,72.81
2019-02-08T08:48:21.282Z,71.19
2019-02-08T08:49:21.711Z,69.85
2019-02-08T08:50:21.863Z,68.27
2019-02-08T08:51:22.862Z,66.78
2019-02-08T08:52:23.849Z,65.26
2019-02-08T08:53:24.547Z,64.59
2019-02-08T08:54:25.975Z,65
2019-02-08T08:55:26.652Z,65.26
2019-02-08T08:56:27.934Z,65.92
2019-02-08T08:57:28.921Z,65.36
2019-02-08T08:58:29.342Z,65.16
2019-02-08T08:59:30.182Z,65.73
2019-02-08T09:00:32.144Z,66.11
2019-02-08T09:01:35.888Z,67.61
2019-02-08T09:01:44.739Z,66.75
2019-02-08T09:02:48.774Z,68.37
2019-02-08T09:03:01.105Z,68.62
2019-02-08T09:03:13.320Z,69.13
2019-02-08T09:03:22.468Z,69.38
2019-02-08T09:04:24.292Z,71.38
2019-02-08T09:05:24.973Z,71.38
2019-02-08T09:06:25.835Z,72.39
2019-02-08T09:07:26.091Z,75.05
2019-02-08T09:08:26.526Z,76.29
2019-02-08T09:09:27.215Z,77.58
2019-02-08T09:10:30.066Z,77.77
2019-02-08T09:11:29.566Z,79.77
2019-02-08T09:12:30.269Z,81.67
2019-02-08T09:13:30.967Z,83.58
2019-02-08T09:14:31.022Z,85.15
2019-02-08T09:15:32.160Z,86.95
2019-02-08T09:16:33.492Z,88.47
2019-02-08T09:17:37.202Z,87.14
2019-02-08T09:17:48.347Z,86.43
2019-02-08T09:18:01.167Z,86.14
2019-02-08T09:18:13.038Z,85.53
2019-02-08T09:18:24.271Z,85
2019-02-08T09:19:24.546Z,85
2019-02-08T09:20:25.271Z,83.39
2019-02-08T09:21:26.248Z,82.15
2019-02-08T09:22:26.667Z,82.34
2019-02-08T09:23:27.090Z,82.05
2019-02-08T09:24:27.550Z,81.1
2019-02-08T09:25:28.252Z,79.72
2019-02-08T09:26:28.950Z,78.29
2019-02-08T09:27:29.926Z,78.1
2019-02-08T09:28:30.188Z,76.57
2019-02-08T09:29:31.224Z,78.67
2019-02-08T09:30:32.227Z,79.62
2019-02-08T09:31:32.677Z,81.77
2019-02-08T09:32:34.095Z,81.96
2019-02-08T09:33:34.824Z,81.86
2019-02-08T09:34:35.525Z,82.81
2019-02-08T09:35:36.800Z,81.2
2019-02-08T09:36:37.219Z,82.15
2019-02-08T09:37:38.645Z,82.24
2019-02-08T09:38:40.152Z,80.15
2019-02-08T09:39:40.808Z,79.62
2019-02-08T09:40:41.235Z,78.91
2019-02-08T09:41:41.967Z,77.49
2019-02-08T09:42:42.666Z,76.1
2019-02-08T09:43:42.877Z,75.34
2019-02-08T09:44:43.297Z,73
2019-02-08T09:45:43.721Z,72.24
2019-02-08T09:46:47.743Z,71.61
2019-02-08T09:46:56.943Z,71.13
2019-02-08T09:47:58.889Z,71.22
2019-02-08T09:48:59.185Z,68.46
2019-02-08T09:49:59.892Z,66.88
2019-02-08T09:51:03.527Z,64.78
2019-02-08T09:51:13.535Z,63.96
2019-02-08T09:52:13.659Z,63.96
2019-02-08T09:53:14.364Z,63.96
2019-02-08T09:54:14.818Z,63.1
2019-02-08T09:55:15.965Z,61.38
2019-02-08T09:56:16.942Z,60.08
2019-02-08T09:57:17.657Z,58.87
2019-02-08T09:58:18.076Z,58.11
2019-02-08T09:59:18.232Z,56.8
2019-02-08T10:00:19.377Z,56.04
2019-02-08T10:01:19.802Z,56.6
2019-02-08T10:02:20.791Z,55.3
2019-02-08T10:03:21.500Z,54.44
2019-02-08T10:04:22.231Z,54.82
2019-02-08T10:05:23.255Z,54.82
2019-02-08T10:06:25.869Z,53.13
2019-02-08T10:07:27.870Z,52.55
2019-02-08T10:08:26.037Z,51.21
2019-02-08T10:09:28.589Z,50.76
2019-02-08T10:10:28.636Z,50.48
2019-02-08T10:11:33.160Z,52.17
2019-02-08T10:11:41.910Z,52.46
2019-02-08T10:12:45.731Z,52.46
2019-02-08T10:13:43.892Z,52.72
2019-02-08T10:14:44.596Z,53
2019-02-08T10:15:45.298Z,52.91
2019-02-08T10:16:46.281Z,53
2019-02-08T10:17:46.988Z,52.08
2019-02-08T10:18:50.546Z,52.55
2019-02-08T10:19:02.698Z,52.94
2019-02-08T10:20:01.560Z,53.22
2019-02-08T10:21:02.009Z,53.03
2019-02-08T10:22:03.563Z,52.75
2019-02-08T10:23:03.974Z,52.75
2019-02-08T10:24:04.408Z,51.5
2019-02-08T10:25:05.700Z,51.03
2019-02-08T10:26:06.445Z,50.48
2019-02-08T10:27:07.156Z,51.21
2019-02-08T10:28:07.859Z,51.6
2019-02-08T10:29:08.284Z,51.12
2019-02-08T10:30:09.694Z,51.12
2019-02-08T10:31:10.147Z,50.09
2019-02-08T10:32:11.286Z,49.9
2019-02-08T10:33:11.441Z,48.39
2019-02-08T10:34:12.426Z,46.61
2019-02-08T10:35:13.554Z,46.15
2019-02-08T10:36:13.984Z,46.05
2019-02-08T10:37:14.778Z,45.96
2019-02-08T10:38:15.215Z,45.76
2019-02-08T10:39:16.400Z,46.17
2019-02-08T10:40:17.312Z,46.08
2019-02-08T10:41:18.575Z,45.67
2019-02-08T10:42:19.560Z,44.52
2019-02-08T10:43:20.276Z,45.26
2019-02-08T10:44:23.412Z,46.48
2019-02-08T10:45:22.798Z,46.39
2019-02-08T10:46:23.439Z,47.34
2019-02-08T10:47:25.600Z,45.84
2019-02-08T10:48:26.304Z,45.07
2019-02-08T10:49:28.542Z,44.52
2019-02-08T10:50:27.929Z,44.81
2019-02-08T10:51:28.816Z,45.65
2019-02-08T10:52:29.971Z,46.7
2019-02-08T10:53:31.124Z,45.29
2019-02-08T10:54:32.403Z,44.81
2019-02-08T10:55:33.761Z,43.97
2019-02-08T10:56:37.465Z,43.49
2019-02-08T10:57:35.060Z,44.04
2019-02-08T10:58:35.640Z,44.71
2019-02-08T10:59:35.792Z,44.04
2019-02-08T11:00:36.710Z,44.13
2019-02-08T11:01:43.055Z,43.08
2019-02-08T11:01:50.223Z,43.47
2019-02-08T11:02:51.227Z,43.08
2019-02-08T11:03:52.329Z,44.31
2019-02-08T11:04:52.641Z,44.69
2019-02-08T11:05:54.395Z,45.07
2019-02-08T11:06:55.135Z,44.59
2019-02-08T11:07:55.473Z,45.34
2019-02-08T11:08:55.908Z,45.62
2019-02-08T11:09:57.377Z,46.3
2019-02-08T11:10:58.167Z,46.3
2019-02-08T11:11:58.651Z,46.2
2019-02-08T11:12:59.039Z,46.58
2019-02-08T11:13:59.756Z,46.2
2019-02-08T11:15:00.253Z,47.44
2019-02-08T11:16:02.978Z,46.77
2019-02-08T11:17:01.806Z,46.41
2019-02-08T11:18:02.397Z,45.26
2019-02-08T11:19:03.721Z,44.21
2019-02-08T11:20:03.874Z,43.73
2019-02-08T11:21:04.398Z,44.12
2019-02-08T11:22:05.543Z,43.73
2019-02-08T11:23:06.782Z,43.44
2019-02-08T11:24:07.491Z,43.83
2019-02-08T11:25:08.281Z,44.98
2019-02-08T11:26:09.007Z,45.07
2019-02-08T11:27:09.482Z,44.79
2019-02-08T11:28:11.681Z,45.24
2019-02-08T11:29:12.067Z,46.39
2019-02-08T11:30:13.276Z,45.43
2019-02-08T11:31:13.890Z,46.1
2019-02-08T11:32:14.884Z,46.2
2019-02-08T11:33:14.879Z,46.51
2019-02-08T11:34:15.646Z,46.58
2019-02-08T11:35:16.480Z,45.74
2019-02-08T11:36:17.230Z,45.26
2019-02-08T11:37:17.951Z,44.4
2019-02-08T11:38:19.410Z,45.36
2019-02-08T11:39:19.874Z,44.69
2019-02-08T11:40:20.863Z,45.34
2019-02-08T11:41:22.122Z,46.67
2019-02-08T11:42:22.828Z,48.57
2019-02-08T11:43:23.549Z,49.02
2019-02-08T11:44:23.815Z,48.16
2019-02-08T11:45:24.149Z,46.25
2019-02-08T11:46:24.300Z,46.92
2019-02-08T11:47:24.733Z,46.44
2019-02-08T11:48:25.739Z,47.03
2019-02-08T11:49:25.771Z,46.08
2019-02-08T11:50:25.922Z,47.13
2019-02-08T11:51:26.441Z,47.2
2019-02-08T11:52:27.226Z,47.78
2019-02-08T11:53:28.344Z,46.44
2019-02-08T11:54:28.502Z,45.46
2019-02-08T11:55:31.294Z,46.03
2019-02-08T11:56:33.381Z,44.89
2019-02-08T11:56:44.975Z,44.51
2019-02-08T11:57:43.592Z,43.36
2019-02-08T11:58:44.853Z,42.57
2019-02-08T11:59:45.361Z,42.69
2019-02-08T12:00:46.337Z,43.05
2019-02-08T12:01:46.765Z,44.01
2019-02-08T12:02:47.212Z,44.2
2019-02-08T12:03:48.925Z,46.2
2019-02-08T12:04:49.969Z,44.6
2019-02-08T12:05:50.422Z,44.22
2019-02-08T12:06:50.607Z,44.89
2019-02-08T12:07:51.408Z,42.43
2019-02-08T12:08:52.670Z,41.85
2019-02-08T12:09:53.374Z,41.55
2019-02-08T12:10:53.866Z,40.89
2019-02-08T12:11:55.139Z,41.85
2019-02-08T12:12:55.574Z,42.71
2019-02-08T12:13:56.280Z,43.19
2019-02-08T12:14:56.992Z,43.29
2019-02-08T12:15:57.420Z,44.34
2019-02-08T12:16:58.415Z,45.27
2019-02-08T12:18:02.014Z,44.7
2019-02-08T12:18:10.835Z,44.51
2019-02-08T12:19:11.730Z,43.46
2019-02-08T12:20:13.434Z,44.22
2019-02-08T12:21:14.149Z,45.56
2019-02-08T12:22:14.577Z,45.56
2019-02-08T12:23:15.158Z,44.79
2019-02-08T12:24:18.575Z,44.89
2019-02-08T12:24:29.697Z,44.41
2019-02-08T12:25:30.533Z,45.37
2019-02-08T12:26:39.011Z,46.42
2019-02-08T12:26:43.633Z,46.68
2019-02-08T12:27:44.049Z,46.13
2019-02-08T12:28:45.701Z,45.53
2019-02-08T12:29:46.149Z,46.18
2019-02-08T12:30:47.144Z,46.37
2019-02-08T12:31:47.853Z,46.47
2019-02-08T12:32:48.560Z,45.79
2019-02-08T12:33:48.987Z,44.65
2019-02-08T12:34:52.424Z,45.99
2019-02-08T12:35:04.671Z,45.7
2019-02-08T12:36:03.622Z,45.7
2019-02-08T12:37:04.050Z,45.89
2019-02-08T12:38:04.763Z,45.79
2019-02-08T12:39:05.789Z,45.32
2019-02-08T12:40:06.500Z,45.29
2019-02-08T12:41:13.999Z,46.15
2019-02-08T12:41:22.954Z,46.44
2019-02-08T12:42:24.288Z,48.63
2019-02-08T12:43:23.932Z,48.85
2019-02-08T12:44:26.608Z,47.97
2019-02-08T12:45:28.649Z,47.78
2019-02-08T12:45:41.009Z,46.94